createdAt,value
2022-08-02T00:01:04.146Z,6.00
2022-08-02T00:03:32.713Z,6.10
2022-08-02T00:06:01.495Z,7.20
2022-08-02T00:08:30.655Z,6.80
2022-08-02T00:10:59.150Z,6.30
2022-08-02T00:13:27.646Z,5.90
2022-08-02T00:15:56.045Z,6.80
2022-08-02T00:18:24.657Z,6.10
2022-08-02T00:20:53.114Z,6.70
2022-08-02T00:23:21.341Z,5.80
2022-08-02T00:25:55.561Z,5.90
2022-08-02T00:28:27.912Z,7.60
2022-08-02T00:30:58.601Z,6.70
2022-08-02T00:34:26.723Z,6.60
2022-08-02T00:36:16.873Z,7.00
2022-08-02T00:38:48.810Z,7.60
2022-08-02T00:41:21.076Z,8.30
2022-08-02T00:43:51.854Z,6.10
2022-08-02T00:46:21.099Z,6.30
2022-08-02T00:48:49.951Z,6.50
2022-08-02T00:51:18.444Z,6.20
2022-08-02T00:53:47.127Z,6.60
2022-08-02T00:56:15.547Z,5.90
2022-08-02T00:58:43.833Z,6.20
2022-08-02T01:06:10.027Z,7.50
2022-08-02T01:08:34.075Z,6.90
2022-08-02T01:11:02.399Z,6.50
2022-08-02T01:13:30.869Z,7.00
2022-08-02T01:16:07.587Z,6.60
2022-08-02T01:18:49.394Z,6.90
2022-08-02T01:21:41.104Z,5.80
2022-08-02T01:24:31.611Z,6.60
2022-08-02T01:27:10.768Z,6.80
2022-08-02T01:29:44.524Z,6.80
2022-08-02T01:32:19.590Z,6.60
2022-08-02T01:35:09.194Z,7.30
2022-08-02T01:37:47.113Z,6.90
2022-08-02T01:40:23.004Z,6.20
2022-08-02T01:42:54.363Z,6.20
2022-08-02T01:45:25.712Z,8.20
2022-08-02T01:47:54.907Z,8.60
2022-08-02T01:50:27.690Z,8.90
2022-08-02T01:52:58.340Z,8.40
2022-08-02T01:55:34.990Z,9.40
2022-08-02T01:58:20.886Z,7.50
2022-08-02T02:00:50.431Z,7.20
2022-08-02T02:03:24.990Z,7.80
2022-08-02T02:05:57.113Z,7.10
2022-08-02T02:08:29.409Z,7.50
2022-08-02T02:12:06.257Z,8.60
2022-08-02T02:13:48.087Z,7.70
2022-08-02T02:16:17.764Z,8.00
2022-08-02T02:18:49.185Z,7.60
2022-08-02T02:21:17.722Z,8.40
2022-08-02T02:23:46.053Z,9.80
2022-08-02T02:26:29.345Z,10.80
2022-08-02T02:29:02.616Z,10.30
2022-08-02T02:31:37.038Z,10.20
2022-08-02T02:34:18.118Z,10.20
2022-08-02T02:36:50.759Z,10.00
2022-08-02T02:39:23.734Z,11.00
2022-08-02T02:41:54.156Z,11.30
2022-08-02T02:44:23.312Z,11.20
2022-08-02T02:46:54.329Z,11.00
2022-08-02T02:49:23.897Z,11.40
2022-08-02T02:51:53.307Z,12.20
2022-08-02T02:54:30.784Z,10.90
2022-08-02T02:57:05.865Z,11.70
2022-08-02T02:59:49.386Z,12.10
2022-08-02T03:02:19.854Z,11.60
2022-08-02T03:04:56.889Z,12.40
2022-08-02T03:07:27.143Z,11.80
2022-08-02T03:09:56.024Z,13.40
2022-08-02T03:12:30.839Z,12.60
2022-08-02T03:15:08.211Z,13.70
2022-08-02T03:17:44.579Z,15.90
2022-08-02T03:20:19.642Z,13.00
2022-08-02T03:22:48.024Z,12.90
2022-08-02T03:25:17.544Z,14.20
2022-08-02T03:27:46.740Z,13.00
2022-08-02T03:30:15.671Z,13.70
2022-08-02T03:32:48.830Z,14.50
2022-08-02T03:35:23.893Z,12.10
2022-08-02T03:37:54.644Z,12.40
2022-08-02T03:40:28.376Z,14.30
2022-08-02T03:42:57.616Z,11.30
2022-08-02T03:45:26.450Z,13.40
2022-08-02T03:47:58.857Z,11.20
2022-08-02T03:50:28.254Z,12.40
2022-08-02T03:52:57.513Z,12.00
2022-08-02T03:55:26.113Z,11.00
2022-08-02T03:57:54.942Z,12.50
2022-08-02T04:00:23.813Z,12.40
2022-08-02T04:02:52.688Z,14.30
2022-08-02T04:05:21.309Z,11.80
2022-08-02T04:08:34.364Z,11.80
2022-08-02T04:10:58.544Z,13.20
2022-08-02T04:13:35.709Z,13.20
2022-08-02T04:16:11.112Z,12.60
2022-08-02T04:19:08.989Z,12.30
2022-08-02T04:21:48.984Z,13.60
2022-08-02T04:24:28.956Z,12.50
2022-08-02T04:27:06.443Z,12.00
2022-08-02T04:29:47.080Z,13.40
2022-08-02T04:32:17.241Z,12.10
2022-08-02T04:35:05.026Z,13.90
2022-08-02T04:37:36.937Z,14.70
2022-08-02T04:40:12.617Z,14.40
2022-08-02T04:42:41.418Z,14.60
2022-08-02T04:45:11.160Z,13.00
2022-08-02T04:48:02.568Z,13.50
2022-08-02T04:50:32.424Z,14.50
2022-08-02T04:53:01.430Z,12.70
2022-08-02T04:55:30.222Z,12.80
2022-08-02T04:57:59.422Z,12.70
2022-08-02T05:00:29.425Z,12.20
2022-08-02T05:02:59.738Z,12.50
2022-08-02T05:05:28.365Z,13.00
2022-08-02T05:07:56.887Z,16.40
2022-08-02T05:10:25.224Z,12.50
2022-08-02T05:12:53.744Z,12.10
2022-08-02T05:15:22.130Z,11.90
2022-08-02T05:17:50.342Z,12.80
2022-08-02T05:20:19.589Z,12.20
2022-08-02T05:22:48.079Z,12.80
2022-08-02T05:25:16.400Z,12.30
2022-08-02T05:27:44.892Z,12.50
2022-08-02T05:30:13.230Z,12.10
2022-08-02T05:32:49.221Z,13.10
2022-08-02T05:35:19.756Z,12.00
2022-08-02T05:37:49.043Z,12.50
2022-08-02T05:40:18.094Z,12.40
2022-08-02T05:42:57.447Z,13.20
2022-08-02T05:45:25.834Z,12.80
2022-08-02T05:47:54.076Z,13.40
2022-08-02T05:50:24.514Z,12.60
2022-08-02T05:53:04.993Z,12.00
2022-08-02T05:55:43.798Z,12.50
2022-08-02T05:58:24.233Z,12.60
2022-08-02T06:00:56.523Z,12.00
2022-08-02T06:03:26.954Z,11.70
2022-08-02T06:08:47.813Z,11.20
2022-08-02T06:11:24.501Z,12.50
2022-08-02T06:13:54.438Z,11.20
2022-08-02T06:16:32.490Z,11.90
2022-08-02T06:19:02.250Z,10.20
2022-08-02T06:22:35.141Z,10.80
2022-08-02T06:24:22.245Z,10.40
2022-08-02T06:26:56.592Z,10.30
2022-08-02T06:29:25.749Z,10.20
2022-08-02T06:31:54.710Z,10.40
2022-08-02T06:34:23.061Z,11.00
2022-08-02T06:37:02.617Z,9.40
2022-08-02T06:39:35.321Z,9.80
2022-08-02T06:42:13.547Z,9.10
2022-08-02T06:44:49.538Z,8.90
2022-08-02T06:47:20.269Z,8.90
2022-08-02T06:49:51.574Z,7.70
2022-08-02T06:52:28.678Z,8.00
2022-08-02T06:55:00.815Z,9.80
2022-08-02T06:57:32.882Z,7.80
2022-08-02T07:00:06.944Z,8.30
2022-08-02T07:02:36.775Z,7.60
2022-08-02T07:05:05.970Z,6.90
2022-08-02T07:07:35.048Z,7.00
2022-08-02T07:10:03.503Z,6.80
2022-08-02T07:12:35.506Z,7.10
2022-08-02T07:15:06.588Z,7.20
2022-08-02T07:17:35.572Z,6.80
2022-08-02T07:20:08.707Z,8.20
2022-08-02T07:22:37.428Z,7.00
2022-08-02T07:25:06.090Z,7.70
2022-08-02T07:27:34.813Z,9.90
2022-08-02T07:30:04.842Z,8.60
2022-08-02T07:32:33.696Z,9.40
2022-08-02T07:35:06.834Z,10.00
2022-08-02T07:37:54.961Z,11.10
2022-08-02T07:40:27.694Z,12.50
2022-08-02T07:43:03.390Z,12.50
2022-08-02T07:45:35.674Z,12.90
2022-08-02T07:48:04.955Z,11.40
2022-08-02T07:50:33.271Z,14.50
2022-08-02T07:53:02.872Z,13.40
2022-08-02T07:55:39.703Z,13.60
2022-08-02T07:58:12.870Z,15.80
2022-08-02T08:00:44.351Z,15.70
2022-08-02T08:03:13.641Z,13.60
2022-08-02T08:05:42.241Z,13.60
2022-08-02T08:08:16.739Z,14.00
2022-08-02T08:10:46.475Z,17.40
2022-08-02T08:13:15.788Z,18.30
2022-08-02T08:15:51.785Z,17.30
2022-08-02T08:18:24.077Z,15.70
2022-08-02T08:20:52.483Z,16.00
2022-08-02T08:23:20.861Z,14.50
2022-08-02T08:25:49.907Z,14.40
2022-08-02T08:28:18.183Z,15.20
2022-08-02T08:30:47.716Z,15.90
2022-08-02T08:33:16.577Z,17.00
2022-08-02T08:35:44.822Z,16.80
2022-08-02T08:38:13.112Z,17.60
2022-08-02T08:40:42.738Z,18.10
2022-08-02T08:43:14.108Z,17.90
2022-08-02T08:45:55.928Z,17.20
2022-08-02T08:48:30.620Z,16.00
2022-08-02T08:51:15.576Z,16.20
2022-08-02T08:53:47.847Z,15.80
2022-08-02T08:56:17.206Z,13.70
2022-08-02T08:58:47.748Z,14.10
2022-08-02T09:03:46.615Z,12.40
2022-08-02T09:06:15.040Z,12.40
2022-08-02T09:08:43.523Z,13.30
2022-08-02T09:11:17.691Z,13.30
2022-08-02T09:13:51.981Z,12.50
2022-08-02T09:16:35.706Z,15.00
2022-08-02T09:19:27.248Z,13.40
2022-08-02T09:22:09.816Z,14.30
2022-08-02T09:24:48.034Z,17.70
2022-08-02T09:27:19.210Z,15.90
2022-08-02T09:32:45.953Z,19.70
2022-08-02T09:35:15.444Z,19.40
2022-08-02T09:37:48.569Z,17.50
2022-08-02T09:40:17.123Z,16.90
2022-08-02T09:42:59.518Z,16.30
2022-08-02T09:45:35.478Z,16.10
2022-08-02T09:48:08.519Z,18.00
2022-08-02T09:50:40.323Z,20.30
2022-08-02T09:53:14.511Z,20.80
2022-08-02T09:55:43.302Z,24.60
2022-08-02T09:58:22.713Z,27.50
2022-08-02T10:01:01.450Z,29.10
2022-08-02T10:03:37.145Z,23.10
2022-08-02T10:06:06.040Z,16.50
2022-08-02T10:08:34.615Z,15.80
2022-08-02T10:11:03.565Z,14.80
2022-08-02T10:13:34.967Z,14.00
2022-08-02T10:16:06.408Z,12.50
2022-08-02T10:18:40.820Z,14.10
2022-08-02T10:21:24.455Z,13.90
2022-08-02T10:23:54.756Z,12.90
2022-08-02T10:26:23.610Z,11.90
2022-08-02T10:28:54.177Z,11.10
2022-08-02T10:31:28.164Z,12.20
2022-08-02T10:34:00.281Z,12.40
2022-08-02T10:36:32.884Z,10.70
2022-08-02T10:39:02.324Z,11.30
2022-08-02T10:41:51.276Z,9.80
2022-08-02T10:44:31.300Z,9.70
2022-08-02T10:47:15.436Z,8.90
2022-08-02T10:49:53.984Z,9.40
2022-08-02T10:52:23.444Z,8.90
2022-08-02T10:54:56.463Z,9.50
2022-08-02T10:57:26.300Z,8.50
2022-08-02T11:02:43.624Z,8.30
2022-08-02T11:05:18.034Z,9.60
2022-08-02T11:07:49.439Z,9.90
2022-08-02T11:10:40.226Z,9.20
2022-08-02T11:13:22.453Z,11.20
2022-08-02T11:15:57.390Z,9.40
2022-08-02T11:18:51.707Z,9.20
2022-08-02T11:21:30.988Z,9.30
2022-08-02T11:24:26.328Z,10.10
2022-08-02T11:26:55.554Z,10.60
2022-08-02T11:29:39.627Z,8.80
2022-08-02T11:32:30.800Z,9.20
2022-08-02T11:35:01.066Z,9.00
2022-08-02T11:37:36.517Z,13.10
2022-08-02T11:40:12.949Z,11.50
2022-08-02T11:42:50.721Z,12.10
2022-08-02T11:47:58.272Z,16.20
2022-08-02T11:50:29.997Z,17.80
2022-08-02T11:52:58.785Z,18.20
2022-08-02T11:55:29.259Z,17.60
2022-08-02T11:58:07.945Z,15.70
2022-08-02T12:00:36.649Z,15.40
2022-08-02T12:03:06.036Z,15.80
2022-08-02T12:06:04.600Z,14.50
2022-08-02T12:08:26.473Z,15.80
2022-08-02T12:10:54.754Z,15.20
2022-08-02T12:13:23.065Z,14.20
2022-08-02T12:15:51.756Z,13.90
2022-08-02T12:18:42.019Z,12.10
2022-08-02T12:21:25.697Z,14.10
2022-08-02T12:23:59.540Z,13.60
2022-08-02T12:26:30.601Z,12.40
2022-08-02T12:28:59.962Z,11.80
2022-08-02T12:31:57.226Z,10.10
2022-08-02T12:34:31.182Z,11.50
2022-08-02T12:37:09.564Z,11.20
2022-08-02T12:39:46.420Z,10.50
2022-08-02T12:42:16.643Z,10.00
2022-08-02T12:44:52.280Z,9.20
2022-08-02T12:47:23.810Z,9.70
2022-08-02T12:50:27.286Z,8.50
2022-08-02T12:53:09.831Z,9.50
2022-08-02T12:56:00.953Z,10.40
2022-08-02T12:58:46.805Z,8.50
2022-08-02T13:01:21.830Z,7.80
2022-08-02T13:04:11.362Z,25.20
2022-08-02T13:06:43.945Z,14.90
2022-08-02T13:09:17.607Z,7.70
2022-08-02T13:11:46.188Z,8.40
2022-08-02T13:14:15.495Z,9.20
2022-08-02T13:16:45.670Z,8.50
2022-08-02T13:19:15.835Z,7.30
2022-08-02T13:22:02.691Z,7.70
2022-08-02T13:24:40.126Z,8.70
2022-08-02T13:27:22.305Z,8.70
2022-08-02T13:29:52.083Z,7.30
2022-08-02T13:32:21.066Z,7.40
2022-08-02T13:34:49.777Z,7.60
2022-08-02T13:37:18.822Z,6.00
2022-08-02T13:40:11.853Z,7.50
2022-08-02T13:42:37.437Z,6.50
2022-08-02T13:45:12.045Z,6.70
2022-08-02T13:48:03.921Z,6.80
2022-08-02T13:50:33.052Z,5.90
2022-08-02T13:53:01.721Z,6.20
2022-08-02T13:55:30.412Z,6.20
2022-08-02T13:57:59.339Z,6.30
2022-08-02T14:00:35.347Z,6.70
2022-08-02T14:03:12.273Z,5.90
2022-08-02T14:05:48.276Z,6.50
2022-08-02T14:08:18.447Z,6.70
2022-08-02T14:10:49.340Z,5.90
2022-08-02T14:13:19.508Z,6.80
2022-08-02T14:15:57.622Z,6.10
2022-08-02T14:18:25.999Z,5.40
2022-08-02T14:20:54.343Z,6.00
2022-08-02T14:23:49.917Z,5.70
2022-08-02T14:26:26.774Z,5.50
2022-08-02T14:28:58.925Z,5.70
2022-08-02T14:31:27.263Z,5.50
2022-08-02T14:33:55.744Z,5.60
2022-08-02T14:36:27.729Z,5.20
2022-08-02T14:38:57.059Z,5.60
2022-08-02T14:41:25.559Z,5.70
2022-08-02T14:44:06.170Z,5.70
2022-08-02T14:46:41.452Z,7.10
2022-08-02T14:49:11.218Z,6.00
2022-08-02T14:51:46.159Z,5.30
2022-08-02T14:54:14.800Z,5.50
2022-08-02T14:56:43.468Z,4.80
2022-08-02T14:59:12.478Z,5.10
2022-08-02T15:01:40.712Z,7.60
2022-08-02T15:04:09.214Z,5.10
2022-08-02T15:06:37.716Z,5.10
2022-08-02T15:09:06.030Z,5.20
2022-08-02T15:11:47.420Z,5.10
2022-08-02T15:14:25.337Z,5.80
2022-08-02T15:16:57.521Z,5.50
2022-08-02T15:19:58.998Z,6.90
2022-08-02T15:22:19.327Z,5.20
2022-08-02T15:24:49.056Z,5.60
2022-08-02T15:27:19.789Z,5.30
2022-08-02T15:29:48.412Z,5.60
2022-08-02T15:32:21.164Z,5.50
2022-08-02T15:34:49.550Z,8.40
2022-08-02T15:37:18.327Z,5.50
2022-08-02T15:39:46.554Z,5.30
2022-08-02T15:42:15.663Z,5.10
2022-08-02T15:44:45.323Z,5.40
2022-08-02T15:47:13.589Z,5.70
2022-08-02T15:49:42.359Z,7.20
2022-08-02T15:52:11.208Z,5.40
2022-08-02T15:54:39.994Z,7.80
2022-08-02T15:57:08.680Z,5.40
2022-08-02T15:59:36.954Z,6.60
2022-08-02T16:02:06.848Z,6.20
2022-08-02T16:04:35.379Z,7.10
2022-08-02T16:07:03.850Z,6.00
2022-08-02T16:09:32.287Z,5.40
2022-08-02T16:12:00.777Z,6.00
2022-08-02T16:14:29.663Z,6.90
2022-08-02T16:16:58.023Z,5.40
2022-08-02T16:19:46.424Z,5.70
2022-08-02T16:22:15.759Z,6.10
2022-08-02T16:24:44.550Z,6.40
2022-08-02T16:27:12.861Z,5.70
2022-08-02T16:29:41.532Z,6.20
2022-08-02T16:32:10.370Z,6.20
2022-08-02T16:35:04.101Z,7.60
2022-08-02T16:37:27.526Z,6.50
2022-08-02T16:40:15.777Z,5.90
2022-08-02T16:42:50.274Z,6.50
2022-08-02T16:45:21.051Z,6.00
2022-08-02T16:47:55.139Z,7.50
2022-08-02T16:50:28.563Z,7.90
2022-08-02T16:52:58.407Z,7.20
2022-08-02T16:55:29.180Z,6.10
2022-08-02T16:58:01.004Z,6.20
2022-08-02T17:02:59.282Z,6.80
2022-08-02T17:05:38.026Z,6.50
2022-08-02T17:08:20.444Z,6.80
2022-08-02T17:10:48.928Z,7.80
2022-08-02T17:13:17.320Z,6.10
2022-08-02T17:16:00.814Z,7.50
2022-08-02T17:18:35.261Z,7.40
2022-08-02T17:21:10.904Z,7.70
2022-08-02T17:26:28.519Z,7.00
2022-08-02T17:29:17.544Z,9.20
2022-08-02T17:32:05.741Z,7.80
2022-08-02T17:34:37.254Z,7.30
2022-08-02T17:37:06.408Z,7.60
2022-08-02T17:39:44.032Z,8.30
2022-08-02T17:42:23.725Z,7.20
2022-08-02T17:44:53.838Z,7.10
2022-08-02T17:50:13.751Z,8.40
2022-08-02T17:52:51.517Z,8.10
2022-08-02T17:55:21.543Z,9.20
2022-08-02T17:57:57.234Z,7.90
2022-08-02T18:00:35.597Z,9.30
2022-08-02T18:03:09.844Z,6.90
2022-08-02T18:05:53.448Z,8.00
2022-08-02T18:08:24.693Z,7.30
2022-08-02T18:10:54.523Z,7.10
2022-08-02T18:13:23.605Z,6.90
2022-08-02T18:15:57.225Z,7.50
2022-08-02T18:18:30.203Z,8.40
2022-08-02T18:21:15.726Z,7.10
2022-08-02T18:23:49.366Z,8.80
2022-08-02T18:26:21.401Z,6.60
2022-08-02T18:28:49.879Z,7.30
2022-08-02T18:31:22.956Z,6.80
2022-08-02T18:33:57.413Z,8.10
2022-08-02T18:36:31.491Z,7.50
2022-08-02T18:39:07.791Z,8.60
2022-08-02T18:41:38.111Z,6.90
2022-08-02T18:44:06.897Z,7.10
2022-08-02T18:46:40.017Z,8.20
2022-08-02T18:49:14.730Z,7.60
2022-08-02T18:51:44.111Z,8.00
2022-08-02T18:54:13.068Z,8.10
2022-08-02T18:56:47.099Z,7.70
2022-08-02T18:59:16.895Z,7.50
2022-08-02T19:01:51.050Z,7.50
2022-08-02T19:04:27.853Z,7.50
2022-08-02T19:07:01.697Z,7.30
2022-08-02T19:12:28.219Z,7.80
2022-08-02T19:14:59.486Z,7.50
2022-08-02T19:20:19.110Z,7.70
2022-08-02T19:22:53.745Z,6.90
2022-08-02T19:25:27.710Z,7.20
2022-08-02T19:27:56.507Z,7.30
2022-08-02T19:30:29.289Z,7.60
2022-08-02T19:32:59.527Z,6.20
2022-08-02T19:35:34.255Z,6.80
2022-08-02T19:38:08.568Z,6.90
2022-08-02T19:40:39.958Z,7.20
2022-08-02T19:44:27.027Z,6.10
2022-08-02T19:45:58.274Z,7.70
2022-08-02T19:48:27.122Z,7.10
2022-08-02T19:50:59.228Z,7.90
2022-08-02T19:53:46.985Z,8.40
2022-08-02T19:56:25.128Z,8.00
2022-08-02T19:58:57.119Z,7.20
2022-08-02T20:01:37.254Z,7.20
2022-08-02T20:04:13.328Z,7.60
2022-08-02T20:06:46.215Z,6.90
2022-08-02T20:09:21.516Z,7.70
2022-08-02T20:11:54.586Z,7.20
2022-08-02T20:14:27.589Z,7.00
2022-08-02T20:17:13.583Z,7.70
2022-08-02T20:19:42.124Z,8.30
2022-08-02T20:22:16.164Z,8.20
2022-08-02T20:24:46.845Z,10.70
2022-08-02T20:27:23.072Z,8.70
2022-08-02T20:29:53.447Z,9.10
2022-08-02T20:32:23.376Z,8.80
2022-08-02T20:34:54.299Z,11.70
2022-08-02T20:37:59.382Z,10.10
2022-08-02T20:40:16.521Z,10.20
2022-08-02T20:42:47.594Z,11.80
2022-08-02T20:45:17.899Z,11.40
2022-08-02T20:47:50.890Z,10.60
2022-08-02T20:50:41.449Z,9.90
2022-08-02T20:53:23.277Z,11.40
2022-08-02T20:55:54.149Z,11.40
2022-08-02T20:58:26.822Z,9.70
2022-08-02T21:00:59.814Z,9.10
2022-08-02T21:03:39.265Z,10.50
2022-08-02T21:06:09.802Z,11.60
2022-08-02T21:08:40.745Z,9.70
2022-08-02T21:11:12.797Z,10.50
2022-08-02T21:13:46.754Z,11.90
2022-08-02T21:16:31.179Z,11.50
2022-08-02T21:19:00.530Z,11.00
2022-08-02T21:21:29.493Z,9.90
2022-08-02T21:24:01.857Z,10.00
2022-08-02T21:26:32.400Z,9.00
2022-08-02T21:29:03.596Z,8.70
2022-08-02T21:31:35.791Z,10.00
2022-08-02T21:34:22.124Z,9.80
2022-08-02T21:36:54.528Z,10.50
2022-08-02T21:39:23.829Z,9.70
2022-08-02T21:41:52.298Z,10.40
2022-08-02T21:44:22.477Z,8.90
2022-08-02T21:46:53.140Z,7.50
2022-08-02T21:49:41.235Z,8.70
2022-08-02T21:54:45.336Z,9.40
2022-08-02T22:00:05.774Z,8.00
2022-08-02T22:02:37.226Z,8.40
2022-08-02T22:05:06.270Z,7.70
2022-08-02T22:07:45.575Z,7.50
2022-08-02T22:10:14.207Z,7.30
2022-08-02T22:12:44.913Z,7.00
2022-08-02T22:15:13.475Z,7.40
2022-08-02T22:17:50.896Z,12.20
2022-08-02T22:20:21.542Z,8.00
2022-08-02T22:22:51.176Z,8.50
2022-08-02T22:25:31.219Z,8.30
2022-08-02T22:28:36.060Z,7.70
2022-08-02T22:30:59.980Z,7.40
2022-08-02T22:34:00.906Z,6.70
2022-08-02T22:36:31.638Z,7.50
2022-08-02T22:39:01.887Z,7.80
2022-08-02T22:42:01.374Z,8.10
2022-08-02T22:44:19.226Z,7.70
2022-08-02T22:46:49.835Z,7.80
2022-08-02T22:49:37.874Z,7.10
2022-08-02T22:52:07.825Z,6.30
2022-08-02T22:54:36.334Z,8.10
2022-08-02T22:57:06.652Z,8.10
2022-08-02T22:58:40.417Z,7.70
2022-08-02T22:58:47.185Z,7.90
2022-08-02T22:58:49.596Z,7.10
2022-08-02T22:59:03.804Z,8.00
2022-08-02T22:59:40.786Z,7.80
2022-08-02T23:02:10.264Z,7.90
2022-08-02T23:04:38.821Z,6.50
2022-08-02T23:07:07.603Z,8.20
2022-08-02T23:09:35.914Z,6.30
2022-08-02T23:12:04.949Z,6.30
2022-08-02T23:14:33.390Z,5.60
2022-08-02T23:17:20.396Z,6.20
2022-08-02T23:19:51.647Z,5.30
2022-08-02T23:22:29.827Z,6.70
2022-08-02T23:25:01.956Z,8.40
2022-08-02T23:27:31.786Z,4.90
2022-08-02T23:30:01.090Z,6.10
2022-08-02T23:32:29.762Z,5.90
2022-08-02T23:34:58.575Z,5.50
2022-08-02T23:37:26.817Z,5.20
2022-08-02T23:39:55.506Z,5.40
2022-08-02T23:42:25.421Z,5.30
2022-08-02T23:44:54.018Z,6.70
2022-08-02T23:47:22.755Z,6.60
2022-08-02T23:49:50.982Z,6.10
2022-08-02T23:52:20.194Z,10.70
2022-08-02T23:54:48.920Z,9.40
2022-08-02T23:57:21.034Z,7.80
2022-08-02T23:59:51.322Z,8.00
